sensor_id;sensor_type;location;lat;lon;timestamp;temperature;humidity
21271;DHT22;10795;50.796;3.860;2023-05-14T00:01:40;13.80;99.90
21271;DHT22;10795;50.796;3.860;2023-05-14T00:04:06;13.50;99.90
21271;DHT22;10795;50.796;3.860;2023-05-14T00:06:32;13.10;99.90
21271;DHT22;10795;50.796;3.860;2023-05-14T00:08:58;13.00;99.90
21271;DHT22;10795;50.796;3.860;2023-05-14T00:11:24;13.20;99.90
21271;DHT22;10795;50.796;3.860;2023-05-14T00:13:50;13.20;99.90
21271;DHT22;10795;50.796;3.860;2023-05-14T00:16:15;13.10;99.90
21271;DHT22;10795;50.796;3.860;2023-05-14T00:18:41;13.30;99.90
21271;DHT22;10795;50.796;3.860;2023-05-14T00:21:07;13.40;99.90
21271;DHT22;10795;50.796;3.860;2023-05-14T00:23:33;13.40;99.90
21271;DHT22;10795;50.796;3.860;2023-05-14T00:25:59;13.20;99.90
21271;DHT22;10795;50.796;3.860;2023-05-14T00:28:24;13.20;99.90
21271;DHT22;10795;50.796;3.860;2023-05-14T00:30:50;13.40;99.90
21271;DHT22;10795;50.796;3.860;2023-05-14T00:33:16;13.20;99.90
21271;DHT22;10795;50.796;3.860;2023-05-14T00:35:42;13.10;99.90
21271;DHT22;10795;50.796;3.860;2023-05-14T00:38:08;13.10;99.90
21271;DHT22;10795;50.796;3.860;2023-05-14T00:40:34;13.10;99.90
21271;DHT22;10795;50.796;3.860;2023-05-14T00:43:00;13.40;99.90
21271;DHT22;10795;50.796;3.860;2023-05-14T00:45:26;13.30;99.90
21271;DHT22;10795;50.796;3.860;2023-05-14T00:47:53;13.10;99.90
21271;DHT22;10795;50.796;3.860;2023-05-14T00:50:19;13.00;99.90
21271;DHT22;10795;50.796;3.860;2023-05-14T00:52:46;13.10;99.90
21271;DHT22;10795;50.796;3.860;2023-05-14T00:55:13;13.20;99.90
21271;DHT22;10795;50.796;3.860;2023-05-14T00:57:41;13.40;99.90
21271;DHT22;10795;50.796;3.860;2023-05-14T01:00:07;13.50;99.90
21271;DHT22;10795;50.796;3.860;2023-05-14T01:02:33;13.30;99.90
21271;DHT22;10795;50.796;3.860;2023-05-14T01:04:59;13.10;99.90
21271;DHT22;10795;50.796;3.860;2023-05-14T01:10:20;13.00;99.90
21271;DHT22;10795;50.796;3.860;2023-05-14T01:13:16;12.90;99.90
21271;DHT22;10795;50.796;3.860;2023-05-14T01:15:46;13.00;99.90
21271;DHT22;10795;50.796;3.860;2023-05-14T01:18:15;13.00;99.90
21271;DHT22;10795;50.796;3.860;2023-05-14T01:20:43;13.00;99.90
21271;DHT22;10795;50.796;3.860;2023-05-14T01:23:09;13.10;99.90
21271;DHT22;10795;50.796;3.860;2023-05-14T01:25:35;13.00;99.90
21271;DHT22;10795;50.796;3.860;2023-05-14T01:28:27;13.10;99.90
21271;DHT22;10795;50.796;3.860;2023-05-14T01:31:07;13.00;99.90
21271;DHT22;10795;50.796;3.860;2023-05-14T01:33:36;12.90;99.90
21271;DHT22;10795;50.796;3.860;2023-05-14T01:36:02;13.00;99.90
21271;DHT22;10795;50.796;3.860;2023-05-14T01:38:29;13.00;99.90
21271;DHT22;10795;50.796;3.860;2023-05-14T01:40:56;12.80;99.90
21271;DHT22;10795;50.796;3.860;2023-05-14T01:43:23;12.90;99.90
21271;DHT22;10795;50.796;3.860;2023-05-14T01:45:49;13.10;99.90
21271;DHT22;10795;50.796;3.860;2023-05-14T01:48:15;13.00;99.90
21271;DHT22;10795;50.796;3.860;2023-05-14T01:50:40;13.00;99.90
21271;DHT22;10795;50.796;3.860;2023-05-14T01:53:06;12.90;99.90
21271;DHT22;10795;50.796;3.860;2023-05-14T01:55:32;12.90;99.90
21271;DHT22;10795;50.796;3.860;2023-05-14T01:57:58;12.90;99.90
21271;DHT22;10795;50.796;3.860;2023-05-14T02:00:24;13.10;99.90
21271;DHT22;10795;50.796;3.860;2023-05-14T02:02:52;13.20;99.90
21271;DHT22;10795;50.796;3.860;2023-05-14T02:05:18;13.00;99.90
21271;DHT22;10795;50.796;3.860;2023-05-14T02:07:45;13.00;99.90
21271;DHT22;10795;50.796;3.860;2023-05-14T02:10:10;13.00;99.90
21271;DHT22;10795;50.796;3.860;2023-05-14T02:12:36;12.90;99.90
21271;DHT22;10795;50.796;3.860;2023-05-14T02:15:03;13.00;99.90
21271;DHT22;10795;50.796;3.860;2023-05-14T02:17:29;13.00;99.90
21271;DHT22;10795;50.796;3.860;2023-05-14T02:19:55;13.00;99.90
21271;DHT22;10795;50.796;3.860;2023-05-14T02:22:20;13.00;99.90
21271;DHT22;10795;50.796;3.860;2023-05-14T02:24:46;13.30;99.90
21271;DHT22;10795;50.796;3.860;2023-05-14T02:27:14;13.30;99.90
21271;DHT22;10795;50.796;3.860;2023-05-14T02:29:40;13.50;99.90
21271;DHT22;10795;50.796;3.860;2023-05-14T02:32:06;13.40;99.90
21271;DHT22;10795;50.796;3.860;2023-05-14T02:34:32;13.50;99.90
21271;DHT22;10795;50.796;3.860;2023-05-14T02:36:59;13.70;99.90
21271;DHT22;10795;50.796;3.860;2023-05-14T02:39:25;13.40;99.90
21271;DHT22;10795;50.796;3.860;2023-05-14T02:41:50;13.40;99.90
21271;DHT22;10795;50.796;3.860;2023-05-14T02:44:16;13.50;99.90
21271;DHT22;10795;50.796;3.860;2023-05-14T02:46:42;13.30;99.90
21271;DHT22;10795;50.796;3.860;2023-05-14T02:49:08;13.20;99.90
21271;DHT22;10795;50.796;3.860;2023-05-14T02:51:34;13.40;99.90
21271;DHT22;10795;50.796;3.860;2023-05-14T02:54:00;13.50;99.90
21271;DHT22;10795;50.796;3.860;2023-05-14T02:56:25;13.30;99.90
21271;DHT22;10795;50.796;3.860;2023-05-14T02:58:51;13.10;99.90
21271;DHT22;10795;50.796;3.860;2023-05-14T03:01:17;13.00;99.90
21271;DHT22;10795;50.796;3.860;2023-05-14T03:03:43;13.20;99.90
21271;DHT22;10795;50.796;3.860;2023-05-14T03:06:09;13.20;99.90
21271;DHT22;10795;50.796;3.860;2023-05-14T03:08:35;13.20;99.90
21271;DHT22;10795;50.796;3.860;2023-05-14T03:11:01;13.20;99.90
21271;DHT22;10795;50.796;3.860;2023-05-14T03:13:27;13.20;99.90
21271;DHT22;10795;50.796;3.860;2023-05-14T03:15:53;13.10;99.90
21271;DHT22;10795;50.796;3.860;2023-05-14T03:18:20;13.00;99.90
21271;DHT22;10795;50.796;3.860;2023-05-14T03:20:46;13.00;99.90
21271;DHT22;10795;50.796;3.860;2023-05-14T03:23:12;13.20;99.90
21271;DHT22;10795;50.796;3.860;2023-05-14T03:25:39;13.10;99.90
21271;DHT22;10795;50.796;3.860;2023-05-14T03:28:05;13.10;99.90
21271;DHT22;10795;50.796;3.860;2023-05-14T03:30:31;13.00;99.90
21271;DHT22;10795;50.796;3.860;2023-05-14T03:32:58;13.00;99.90
21271;DHT22;10795;50.796;3.860;2023-05-14T03:35:24;13.10;99.90
21271;DHT22;10795;50.796;3.860;2023-05-14T03:37:50;13.10;99.90
21271;DHT22;10795;50.796;3.860;2023-05-14T03:40:17;13.10;99.90
21271;DHT22;10795;50.796;3.860;2023-05-14T03:42:43;13.00;99.90
21271;DHT22;10795;50.796;3.860;2023-05-14T03:45:09;13.00;99.90
21271;DHT22;10795;50.796;3.860;2023-05-14T03:47:35;12.80;99.90
21271;DHT22;10795;50.796;3.860;2023-05-14T03:50:01;12.90;99.90
21271;DHT22;10795;50.796;3.860;2023-05-14T03:52:27;12.90;99.90
21271;DHT22;10795;50.796;3.860;2023-05-14T03:54:53;12.90;99.90
21271;DHT22;10795;50.796;3.860;2023-05-14T03:57:19;12.80;99.90
21271;DHT22;10795;50.796;3.860;2023-05-14T03:59:45;12.80;99.90
21271;DHT22;10795;50.796;3.860;2023-05-14T04:02:12;13.00;99.90
21271;DHT22;10795;50.796;3.860;2023-05-14T04:04:38;13.10;99.90
21271;DHT22;10795;50.796;3.860;2023-05-14T04:07:03;13.00;99.90
21271;DHT22;10795;50.796;3.860;2023-05-14T04:09:29;12.90;99.90
21271;DHT22;10795;50.796;3.860;2023-05-14T04:11:56;12.90;99.90
21271;DHT22;10795;50.796;3.860;2023-05-14T04:14:21;12.90;99.90
21271;DHT22;10795;50.796;3.860;2023-05-14T04:16:47;13.30;99.90
21271;DHT22;10795;50.796;3.860;2023-05-14T04:19:13;13.20;99.90
21271;DHT22;10795;50.796;3.860;2023-05-14T04:21:39;13.20;99.90
21271;DHT22;10795;50.796;3.860;2023-05-14T04:24:05;13.10;99.90
21271;DHT22;10795;50.796;3.860;2023-05-14T04:26:31;12.90;99.90
21271;DHT22;10795;50.796;3.860;2023-05-14T04:28:56;12.70;99.90
21271;DHT22;10795;50.796;3.860;2023-05-14T04:31:25;12.80;99.90
21271;DHT22;10795;50.796;3.860;2023-05-14T04:33:51;12.90;99.90
21271;DHT22;10795;50.796;3.860;2023-05-14T04:36:17;12.90;99.90
21271;DHT22;10795;50.796;3.860;2023-05-14T04:38:43;13.00;99.90
21271;DHT22;10795;50.796;3.860;2023-05-14T04:41:08;12.90;99.90
21271;DHT22;10795;50.796;3.860;2023-05-14T04:43:34;12.80;99.90
21271;DHT22;10795;50.796;3.860;2023-05-14T04:46:00;12.90;99.90
21271;DHT22;10795;50.796;3.860;2023-05-14T04:48:26;12.90;99.90
21271;DHT22;10795;50.796;3.860;2023-05-14T04:50:52;13.00;99.90
21271;DHT22;10795;50.796;3.860;2023-05-14T04:53:18;13.00;99.90
21271;DHT22;10795;50.796;3.860;2023-05-14T04:55:43;13.00;99.90
21271;DHT22;10795;50.796;3.860;2023-05-14T04:58:09;13.00;99.90
21271;DHT22;10795;50.796;3.860;2023-05-14T05:00:35;12.90;99.90
21271;DHT22;10795;50.796;3.860;2023-05-14T05:03:01;13.00;99.90
21271;DHT22;10795;50.796;3.860;2023-05-14T05:05:27;13.20;99.90
21271;DHT22;10795;50.796;3.860;2023-05-14T05:07:53;13.10;99.90
21271;DHT22;10795;50.796;3.860;2023-05-14T05:10:19;12.90;99.90
21271;DHT22;10795;50.796;3.860;2023-05-14T05:12:45;13.00;99.90
21271;DHT22;10795;50.796;3.860;2023-05-14T05:15:11;13.10;99.90
21271;DHT22;10795;50.796;3.860;2023-05-14T05:17:37;13.30;99.90
21271;DHT22;10795;50.796;3.860;2023-05-14T05:20:03;13.30;99.90
21271;DHT22;10795;50.796;3.860;2023-05-14T05:22:30;13.10;99.90
21271;DHT22;10795;50.796;3.860;2023-05-14T05:24:56;13.10;99.90
21271;DHT22;10795;50.796;3.860;2023-05-14T05:27:23;13.20;99.90
21271;DHT22;10795;50.796;3.860;2023-05-14T05:29:48;13.30;99.90
21271;DHT22;10795;50.796;3.860;2023-05-14T05:32:14;13.20;99.90
21271;DHT22;10795;50.796;3.860;2023-05-14T05:34:40;12.80;99.90
21271;DHT22;10795;50.796;3.860;2023-05-14T05:37:06;12.90;99.90
21271;DHT22;10795;50.796;3.860;2023-05-14T05:39:33;13.00;99.90
21271;DHT22;10795;50.796;3.860;2023-05-14T05:42:03;12.60;99.90
21271;DHT22;10795;50.796;3.860;2023-05-14T05:44:30;12.60;99.90
21271;DHT22;10795;50.796;3.860;2023-05-14T05:46:55;12.70;99.90
21271;DHT22;10795;50.796;3.860;2023-05-14T05:49:22;12.70;99.90
21271;DHT22;10795;50.796;3.860;2023-05-14T05:51:48;12.60;99.90
21271;DHT22;10795;50.796;3.860;2023-05-14T05:54:14;12.60;99.90
21271;DHT22;10795;50.796;3.860;2023-05-14T05:56:40;12.60;99.90
21271;DHT22;10795;50.796;3.860;2023-05-14T05:59:05;12.60;99.90
21271;DHT22;10795;50.796;3.860;2023-05-14T06:01:31;12.70;99.90
21271;DHT22;10795;50.796;3.860;2023-05-14T06:03:57;12.90;99.90
21271;DHT22;10795;50.796;3.860;2023-05-14T06:06:23;13.10;99.90
21271;DHT22;10795;50.796;3.860;2023-05-14T06:08:49;13.10;99.90
21271;DHT22;10795;50.796;3.860;2023-05-14T06:11:14;13.20;99.90
21271;DHT22;10795;50.796;3.860;2023-05-14T06:13:41;13.00;99.90
21271;DHT22;10795;50.796;3.860;2023-05-14T06:16:08;12.60;99.90
21271;DHT22;10795;50.796;3.860;2023-05-14T06:18:34;12.50;99.90
21271;DHT22;10795;50.796;3.860;2023-05-14T06:21:00;12.30;99.90
21271;DHT22;10795;50.796;3.860;2023-05-14T06:23:26;12.20;99.90
21271;DHT22;10795;50.796;3.860;2023-05-14T06:25:51;12.50;99.90
21271;DHT22;10795;50.796;3.860;2023-05-14T06:28:17;12.50;99.90
21271;DHT22;10795;50.796;3.860;2023-05-14T06:30:43;12.70;99.90
21271;DHT22;10795;50.796;3.860;2023-05-14T06:33:09;12.70;99.90
21271;DHT22;10795;50.796;3.860;2023-05-14T06:35:35;12.60;99.90
21271;DHT22;10795;50.796;3.860;2023-05-14T06:38:01;12.70;99.90
21271;DHT22;10795;50.796;3.860;2023-05-14T06:40:27;12.70;99.90
21271;DHT22;10795;50.796;3.860;2023-05-14T06:42:53;12.80;99.90
21271;DHT22;10795;50.796;3.860;2023-05-14T06:45:18;13.00;99.90
21271;DHT22;10795;50.796;3.860;2023-05-14T06:47:44;13.00;99.90
21271;DHT22;10795;50.796;3.860;2023-05-14T06:50:10;13.10;99.90
21271;DHT22;10795;50.796;3.860;2023-05-14T06:52:36;13.10;99.90
21271;DHT22;10795;50.796;3.860;2023-05-14T06:55:02;13.20;99.90
21271;DHT22;10795;50.796;3.860;2023-05-14T06:57:28;13.10;99.90
21271;DHT22;10795;50.796;3.860;2023-05-14T06:59:53;13.10;99.90
21271;DHT22;10795;50.796;3.860;2023-05-14T07:02:22;13.40;99.90
21271;DHT22;10795;50.796;3.860;2023-05-14T07:04:47;13.60;99.90
21271;DHT22;10795;50.796;3.860;2023-05-14T07:07:13;13.30;99.90
21271;DHT22;10795;50.796;3.860;2023-05-14T07:09:42;13.30;99.90
21271;DHT22;10795;50.796;3.860;2023-05-14T07:12:08;13.30;99.90
21271;DHT22;10795;50.796;3.860;2023-05-14T07:14:34;13.30;99.90
21271;DHT22;10795;50.796;3.860;2023-05-14T07:17:00;13.30;99.90
21271;DHT22;10795;50.796;3.860;2023-05-14T07:19:25;13.30;99.90
21271;DHT22;10795;50.796;3.860;2023-05-14T07:21:53;13.20;99.90
21271;DHT22;10795;50.796;3.860;2023-05-14T07:24:19;13.50;99.90
21271;DHT22;10795;50.796;3.860;2023-05-14T07:26:44;13.60;99.90
21271;DHT22;10795;50.796;3.860;2023-05-14T07:29:10;13.50;99.90
21271;DHT22;10795;50.796;3.860;2023-05-14T07:31:36;13.70;99.90
21271;DHT22;10795;50.796;3.860;2023-05-14T07:34:02;13.60;99.90
21271;DHT22;10795;50.796;3.860;2023-05-14T07:36:28;13.70;99.90
21271;DHT22;10795;50.796;3.860;2023-05-14T07:38:54;13.70;99.90
21271;DHT22;10795;50.796;3.860;2023-05-14T07:41:20;13.60;99.90
21271;DHT22;10795;50.796;3.860;2023-05-14T07:43:45;13.70;99.90
21271;DHT22;10795;50.796;3.860;2023-05-14T07:46:11;13.70;99.90
21271;DHT22;10795;50.796;3.860;2023-05-14T07:48:37;13.90;99.90
21271;DHT22;10795;50.796;3.860;2023-05-14T07:51:03;13.70;99.90
21271;DHT22;10795;50.796;3.860;2023-05-14T07:53:29;13.80;99.90
21271;DHT22;10795;50.796;3.860;2023-05-14T07:55:54;13.80;99.90
21271;DHT22;10795;50.796;3.860;2023-05-14T07:58:20;13.90;99.90
21271;DHT22;10795;50.796;3.860;2023-05-14T08:00:46;13.90;99.90
21271;DHT22;10795;50.796;3.860;2023-05-14T08:03:12;14.00;99.90
21271;DHT22;10795;50.796;3.860;2023-05-14T08:05:38;13.90;99.90
21271;DHT22;10795;50.796;3.860;2023-05-14T08:08:04;13.90;99.90
21271;DHT22;10795;50.796;3.860;2023-05-14T08:10:30;14.30;99.90
21271;DHT22;10795;50.796;3.860;2023-05-14T08:12:56;14.40;99.90
21271;DHT22;10795;50.796;3.860;2023-05-14T08:15:22;14.30;99.90
21271;DHT22;10795;50.796;3.860;2023-05-14T08:17:47;14.50;99.90
21271;DHT22;10795;50.796;3.860;2023-05-14T08:20:13;14.50;99.90
21271;DHT22;10795;50.796;3.860;2023-05-14T08:22:39;14.70;99.90
21271;DHT22;10795;50.796;3.860;2023-05-14T08:25:05;14.80;99.90
21271;DHT22;10795;50.796;3.860;2023-05-14T08:27:32;15.00;99.90
21271;DHT22;10795;50.796;3.860;2023-05-14T08:29:58;14.80;99.90
21271;DHT22;10795;50.796;3.860;2023-05-14T08:32:24;14.70;99.90
21271;DHT22;10795;50.796;3.860;2023-05-14T08:34:50;14.70;99.90
21271;DHT22;10795;50.796;3.860;2023-05-14T08:37:16;15.10;99.90
21271;DHT22;10795;50.796;3.860;2023-05-14T08:39:42;15.30;99.90
21271;DHT22;10795;50.796;3.860;2023-05-14T08:42:11;15.10;99.90
21271;DHT22;10795;50.796;3.860;2023-05-14T08:44:48;14.80;99.90
21271;DHT22;10795;50.796;3.860;2023-05-14T08:47:17;15.10;99.90
21271;DHT22;10795;50.796;3.860;2023-05-14T08:50:05;14.90;99.90
21271;DHT22;10795;50.796;3.860;2023-05-14T08:52:33;14.90;99.90
21271;DHT22;10795;50.796;3.860;2023-05-14T08:55:01;14.90;99.90
21271;DHT22;10795;50.796;3.860;2023-05-14T08:57:29;14.90;99.90
21271;DHT22;10795;50.796;3.860;2023-05-14T08:59:56;14.80;99.90
21271;DHT22;10795;50.796;3.860;2023-05-14T09:02:26;14.60;99.90
21271;DHT22;10795;50.796;3.860;2023-05-14T09:04:57;15.00;99.90
21271;DHT22;10795;50.796;3.860;2023-05-14T09:07:25;15.50;99.90
21271;DHT22;10795;50.796;3.860;2023-05-14T09:09:52;15.50;99.90
21271;DHT22;10795;50.796;3.860;2023-05-14T09:12:18;15.50;99.90
21271;DHT22;10795;50.796;3.860;2023-05-14T09:14:46;15.80;99.90
21271;DHT22;10795;50.796;3.860;2023-05-14T09:17:12;15.90;99.90
21271;DHT22;10795;50.796;3.860;2023-05-14T09:19:42;16.30;99.90
21271;DHT22;10795;50.796;3.860;2023-05-14T09:22:12;16.60;99.90
21271;DHT22;10795;50.796;3.860;2023-05-14T09:24:39;16.60;99.90
21271;DHT22;10795;50.796;3.860;2023-05-14T09:27:05;16.60;99.90
21271;DHT22;10795;50.796;3.860;2023-05-14T09:29:32;17.00;99.90
21271;DHT22;10795;50.796;3.860;2023-05-14T09:31:59;17.20;99.90
21271;DHT22;10795;50.796;3.860;2023-05-14T09:34:31;17.30;99.90
21271;DHT22;10795;50.796;3.860;2023-05-14T09:37:04;16.80;99.90
21271;DHT22;10795;50.796;3.860;2023-05-14T09:39:33;17.10;99.90
21271;DHT22;10795;50.796;3.860;2023-05-14T09:41:59;17.60;99.90
21271;DHT22;10795;50.796;3.860;2023-05-14T09:44:25;17.70;99.90
21271;DHT22;10795;50.796;3.860;2023-05-14T09:46:52;18.20;99.90
21271;DHT22;10795;50.796;3.860;2023-05-14T09:49:18;18.70;99.90
21271;DHT22;10795;50.796;3.860;2023-05-14T09:51:44;18.80;99.90
21271;DHT22;10795;50.796;3.860;2023-05-14T09:54:10;18.70;99.90
21271;DHT22;10795;50.796;3.860;2023-05-14T09:56:36;18.80;99.90
21271;DHT22;10795;50.796;3.860;2023-05-14T09:59:04;19.20;99.90
21271;DHT22;10795;50.796;3.860;2023-05-14T10:01:30;19.50;99.90
21271;DHT22;10795;50.796;3.860;2023-05-14T10:03:57;19.40;99.90
21271;DHT22;10795;50.796;3.860;2023-05-14T10:06:29;19.50;99.90
21271;DHT22;10795;50.796;3.860;2023-05-14T10:09:00;19.60;99.90
21271;DHT22;10795;50.796;3.860;2023-05-14T10:11:32;20.30;99.90
21271;DHT22;10795;50.796;3.860;2023-05-14T10:16:49;19.60;99.90
21271;DHT22;10795;50.796;3.860;2023-05-14T10:19:16;19.70;99.90
21271;DHT22;10795;50.796;3.860;2023-05-14T10:21:55;20.30;99.90
21271;DHT22;10795;50.796;3.860;2023-05-14T10:24:21;21.60;99.90
21271;DHT22;10795;50.796;3.860;2023-05-14T10:26:49;22.10;99.90
21271;DHT22;10795;50.796;3.860;2023-05-14T10:29:15;22.70;99.90
21271;DHT22;10795;50.796;3.860;2023-05-14T10:31:53;22.10;99.90
21271;DHT22;10795;50.796;3.860;2023-05-14T10:37:05;23.20;99.90
21271;DHT22;10795;50.796;3.860;2023-05-14T10:39:56;23.60;99.90
21271;DHT22;10795;50.796;3.860;2023-05-14T10:42:30;23.80;99.90
21271;DHT22;10795;50.796;3.860;2023-05-14T10:45:00;24.30;99.90
21271;DHT22;10795;50.796;3.860;2023-05-14T10:47:27;24.10;99.90
21271;DHT22;10795;50.796;3.860;2023-05-14T10:49:56;23.90;99.90
21271;DHT22;10795;50.796;3.860;2023-05-14T10:52:22;23.50;99.90
21271;DHT22;10795;50.796;3.860;2023-05-14T10:54:53;24.00;99.90
21271;DHT22;10795;50.796;3.860;2023-05-14T10:57:21;24.60;99.90
21271;DHT22;10795;50.796;3.860;2023-05-14T10:59:51;25.10;99.90
21271;DHT22;10795;50.796;3.860;2023-05-14T11:02:40;25.10;99.90
21271;DHT22;10795;50.796;3.860;2023-05-14T11:05:11;26.00;99.90
21271;DHT22;10795;50.796;3.860;2023-05-14T11:12:35;26.80;99.90
21271;DHT22;10795;50.796;3.860;2023-05-14T11:15:06;26.30;99.90
21271;DHT22;10795;50.796;3.860;2023-05-14T11:17:34;26.50;99.90
21271;DHT22;10795;50.796;3.860;2023-05-14T11:20:01;26.60;99.90
21271;DHT22;10795;50.796;3.860;2023-05-14T11:22:27;26.20;99.90
21271;DHT22;10795;50.796;3.860;2023-05-14T11:24:53;27.10;99.90
21271;DHT22;10795;50.796;3.860;2023-05-14T11:27:20;26.30;99.90
21271;DHT22;10795;50.796;3.860;2023-05-14T11:29:47;26.60;99.90
21271;DHT22;10795;50.796;3.860;2023-05-14T11:32:14;27.10;99.90
21271;DHT22;10795;50.796;3.860;2023-05-14T11:34:41;27.70;99.90
21271;DHT22;10795;50.796;3.860;2023-05-14T11:37:07;27.70;99.90
21271;DHT22;10795;50.796;3.860;2023-05-14T11:39:35;26.80;99.90
21271;DHT22;10795;50.796;3.860;2023-05-14T11:42:11;26.90;99.90
21271;DHT22;10795;50.796;3.860;2023-05-14T11:44:41;27.40;99.90
21271;DHT22;10795;50.796;3.860;2023-05-14T11:47:10;28.00;99.90
21271;DHT22;10795;50.796;3.860;2023-05-14T11:49:36;27.40;99.90
21271;DHT22;10795;50.796;3.860;2023-05-14T11:52:06;26.70;99.90
21271;DHT22;10795;50.796;3.860;2023-05-14T11:54:33;27.50;99.90
21271;DHT22;10795;50.796;3.860;2023-05-14T11:57:01;27.80;99.90
21271;DHT22;10795;50.796;3.860;2023-05-14T11:59:30;27.70;99.90
21271;DHT22;10795;50.796;3.860;2023-05-14T12:01:59;28.10;99.90
21271;DHT22;10795;50.796;3.860;2023-05-14T12:04:25;28.60;99.90
21271;DHT22;10795;50.796;3.860;2023-05-14T12:06:51;28.80;99.90
21271;DHT22;10795;50.796;3.860;2023-05-14T12:09:21;28.80;99.90
21271;DHT22;10795;50.796;3.860;2023-05-14T12:11:49;28.70;99.90
21271;DHT22;10795;50.796;3.860;2023-05-14T12:14:17;28.70;99.90
21271;DHT22;10795;50.796;3.860;2023-05-14T12:16:43;28.90;99.90
21271;DHT22;10795;50.796;3.860;2023-05-14T12:19:10;28.30;99.90
21271;DHT22;10795;50.796;3.860;2023-05-14T12:21:37;27.40;99.90
21271;DHT22;10795;50.796;3.860;2023-05-14T12:24:03;26.90;99.90
21271;DHT22;10795;50.796;3.860;2023-05-14T12:26:33;26.10;99.90
21271;DHT22;10795;50.796;3.860;2023-05-14T12:29:00;25.80;99.90
21271;DHT22;10795;50.796;3.860;2023-05-14T12:31:30;27.10;99.90
21271;DHT22;10795;50.796;3.860;2023-05-14T12:33:57;26.40;99.90
21271;DHT22;10795;50.796;3.860;2023-05-14T12:36:23;27.40;99.90
21271;DHT22;10795;50.796;3.860;2023-05-14T12:38:49;27.80;99.90
21271;DHT22;10795;50.796;3.860;2023-05-14T12:41:16;27.50;99.90
21271;DHT22;10795;50.796;3.860;2023-05-14T12:43:43;27.00;99.90
21271;DHT22;10795;50.796;3.860;2023-05-14T12:46:09;26.50;99.90
21271;DHT22;10795;50.796;3.860;2023-05-14T12:48:35;26.70;99.90
21271;DHT22;10795;50.796;3.860;2023-05-14T12:51:00;27.10;99.90
21271;DHT22;10795;50.796;3.860;2023-05-14T12:53:26;27.50;99.90
21271;DHT22;10795;50.796;3.860;2023-05-14T12:55:53;27.30;99.90
21271;DHT22;10795;50.796;3.860;2023-05-14T12:58:19;27.30;99.90
21271;DHT22;10795;50.796;3.860;2023-05-14T13:00:45;26.30;99.90
21271;DHT22;10795;50.796;3.860;2023-05-14T13:03:11;26.30;99.90
21271;DHT22;10795;50.796;3.860;2023-05-14T13:05:36;25.80;99.90
21271;DHT22;10795;50.796;3.860;2023-05-14T13:08:02;25.80;99.90
21271;DHT22;10795;50.796;3.860;2023-05-14T13:10:28;26.10;99.90
21271;DHT22;10795;50.796;3.860;2023-05-14T13:12:55;26.40;99.90
21271;DHT22;10795;50.796;3.860;2023-05-14T13:15:21;26.40;99.90
21271;DHT22;10795;50.796;3.860;2023-05-14T13:17:47;26.50;99.90
21271;DHT22;10795;50.796;3.860;2023-05-14T13:20:14;26.30;99.90
21271;DHT22;10795;50.796;3.860;2023-05-14T13:22:42;26.80;99.90
21271;DHT22;10795;50.796;3.860;2023-05-14T13:25:08;26.50;99.90
21271;DHT22;10795;50.796;3.860;2023-05-14T13:27:34;26.70;99.90
21271;DHT22;10795;50.796;3.860;2023-05-14T13:30:03;26.70;99.90
21271;DHT22;10795;50.796;3.860;2023-05-14T13:32:29;25.90;99.90
21271;DHT22;10795;50.796;3.860;2023-05-14T13:34:55;25.60;99.90
21271;DHT22;10795;50.796;3.860;2023-05-14T13:37:21;25.80;99.90
21271;DHT22;10795;50.796;3.860;2023-05-14T13:39:46;26.20;99.90
21271;DHT22;10795;50.796;3.860;2023-05-14T13:42:12;25.80;99.90
21271;DHT22;10795;50.796;3.860;2023-05-14T13:44:38;26.20;99.90
21271;DHT22;10795;50.796;3.860;2023-05-14T13:47:04;26.10;99.90
21271;DHT22;10795;50.796;3.860;2023-05-14T13:49:30;25.40;99.90
21271;DHT22;10795;50.796;3.860;2023-05-14T13:51:55;25.90;99.90
21271;DHT22;10795;50.796;3.860;2023-05-14T13:54:21;26.70;99.90
21271;DHT22;10795;50.796;3.860;2023-05-14T13:56:47;26.20;99.90
21271;DHT22;10795;50.796;3.860;2023-05-14T13:59:13;25.70;99.90
21271;DHT22;10795;50.796;3.860;2023-05-14T14:01:39;26.10;99.90
21271;DHT22;10795;50.796;3.860;2023-05-14T14:04:08;26.50;99.90
21271;DHT22;10795;50.796;3.860;2023-05-14T14:06:34;26.50;99.90
21271;DHT22;10795;50.796;3.860;2023-05-14T14:09:00;26.00;99.90
21271;DHT22;10795;50.796;3.860;2023-05-14T14:11:26;25.60;99.90
21271;DHT22;10795;50.796;3.860;2023-05-14T14:13:52;25.50;99.90
21271;DHT22;10795;50.796;3.860;2023-05-14T14:16:18;25.80;99.90
21271;DHT22;10795;50.796;3.860;2023-05-14T14:18:44;26.00;99.90
21271;DHT22;10795;50.796;3.860;2023-05-14T14:21:10;25.90;99.90
21271;DHT22;10795;50.796;3.860;2023-05-14T14:23:36;24.80;99.90
21271;DHT22;10795;50.796;3.860;2023-05-14T14:26:02;24.80;99.90
21271;DHT22;10795;50.796;3.860;2023-05-14T14:28:28;24.60;99.90
21271;DHT22;10795;50.796;3.860;2023-05-14T14:30:54;24.90;99.90
21271;DHT22;10795;50.796;3.860;2023-05-14T14:33:20;24.90;99.90
21271;DHT22;10795;50.796;3.860;2023-05-14T14:35:46;25.00;99.90
21271;DHT22;10795;50.796;3.860;2023-05-14T14:38:11;25.20;99.90
21271;DHT22;10795;50.796;3.860;2023-05-14T14:40:38;25.30;99.90
21271;DHT22;10795;50.796;3.860;2023-05-14T14:43:04;24.80;99.90
21271;DHT22;10795;50.796;3.860;2023-05-14T14:45:30;24.50;99.90
21271;DHT22;10795;50.796;3.860;2023-05-14T14:48:21;24.40;99.90
21271;DHT22;10795;50.796;3.860;2023-05-14T14:50:47;24.10;99.90
21271;DHT22;10795;50.796;3.860;2023-05-14T14:53:12;24.00;99.90
21271;DHT22;10795;50.796;3.860;2023-05-14T14:55:38;23.90;99.90
21271;DHT22;10795;50.796;3.860;2023-05-14T14:58:04;23.80;99.90
21271;DHT22;10795;50.796;3.860;2023-05-14T15:00:30;23.50;99.90
21271;DHT22;10795;50.796;3.860;2023-05-14T15:02:56;23.70;99.90
21271;DHT22;10795;50.796;3.860;2023-05-14T15:05:22;23.80;99.90
21271;DHT22;10795;50.796;3.860;2023-05-14T15:07:47;23.60;99.90
21271;DHT22;10795;50.796;3.860;2023-05-14T15:10:13;23.30;99.90
21271;DHT22;10795;50.796;3.860;2023-05-14T15:12:39;23.50;99.90
21271;DHT22;10795;50.796;3.860;2023-05-14T15:15:05;23.30;99.90
21271;DHT22;10795;50.796;3.860;2023-05-14T15:17:31;23.50;99.90
21271;DHT22;10795;50.796;3.860;2023-05-14T15:19:57;23.50;99.90
21271;DHT22;10795;50.796;3.860;2023-05-14T15:22:23;23.00;99.90
21271;DHT22;10795;50.796;3.860;2023-05-14T15:24:49;23.20;99.90
21271;DHT22;10795;50.796;3.860;2023-05-14T15:27:14;23.10;99.90
21271;DHT22;10795;50.796;3.860;2023-05-14T15:29:40;23.00;99.90
21271;DHT22;10795;50.796;3.860;2023-05-14T15:32:06;22.50;99.90
21271;DHT22;10795;50.796;3.860;2023-05-14T15:34:32;22.70;99.90
21271;DHT22;10795;50.796;3.860;2023-05-14T15:36:58;22.90;99.90
21271;DHT22;10795;50.796;3.860;2023-05-14T15:39:23;22.50;99.90
21271;DHT22;10795;50.796;3.860;2023-05-14T15:41:49;22.00;99.90